Time;durP1;ratioP1;P1;durP2;ratioP2;P2;SDS_P1;SDS_P2;PMS_P1;PMS_P2;Temp;Humidity;BMP_temperature;BMP_pressure;BME280_temperature;BME280_humidity;BME280_pressure;Samples;Min_cycle;Max_cycle;Signal;HPM_P1;HPM_P2
2021/10/21 00:02:28;;;;;;;13.43;6.20;;;13.10;99.90;;;;;;4446486;28;657903;-75
2021/10/21 00:05:16;;;;;;;7.93;5.77;;;13.20;99.90;;;;;;4419843;28;657939;-75
2021/10/21 00:08:05;;;;;;;10.67;6.03;;;13.30;99.90;;;;;;4441300;28;656896;-76
2021/10/21 00:10:53;;;;;;;12.20;6.50;;;13.30;99.90;;;;;;4417256;28;659098;-75
2021/10/21 00:13:41;;;;;;;8.17;5.87;;;13.20;99.90;;;;;;4422598;28;657307;-75
2021/10/21 00:16:28;;;;;;;9.90;6.00;;;13.10;99.90;;;;;;4445844;28;658208;-76
2021/10/21 00:19:16;;;;;;;9.60;6.07;;;13.00;99.90;;;;;;4423685;28;657116;-76
2021/10/21 00:22:04;;;;;;;12.67;6.57;;;12.80;99.90;;;;;;4438553;28;657106;-75
2021/10/21 00:24:53;;;;;;;10.20;6.07;;;12.70;99.90;;;;;;4420079;28;657544;-76
2021/10/21 00:27:41;;;;;;;12.07;6.57;;;12.50;99.90;;;;;;4424340;28;657746;-76
2021/10/21 00:30:28;;;;;;;11.23;6.10;;;12.30;99.90;;;;;;4437154;28;657914;-76
2021/10/21 00:33:16;;;;;;;10.53;6.40;;;12.10;99.90;;;;;;4418860;28;657814;-75
2021/10/21 00:36:04;;;;;;;11.57;6.20;;;12.00;99.90;;;;;;4439817;28;658068;-75
2021/10/21 00:38:51;;;;;;;10.37;6.40;;;11.90;99.90;;;;;;4419663;28;657526;-75
2021/10/21 00:41:40;;;;;;;14.87;6.30;;;11.80;99.90;;;;;;4433007;28;657854;-76
2021/10/21 00:44:27;;;;;;;12.10;6.20;;;11.60;99.90;;;;;;4413189;28;658643;-75
2021/10/21 00:47:16;;;;;;;12.53;6.23;;;11.40;99.90;;;;;;4439496;28;657379;-76
2021/10/21 00:50:04;;;;;;;11.97;6.53;;;11.30;99.90;;;;;;4439128;28;658495;-75
2021/10/21 00:52:51;;;;;;;12.83;6.50;;;11.20;99.90;;;;;;4418423;28;657501;-76
2021/10/21 00:55:39;;;;;;;13.03;6.87;;;11.00;99.90;;;;;;4437013;28;658618;-76
2021/10/21 00:58:28;;;;;;;14.70;6.60;;;11.00;99.90;;;;;;4424936;28;657923;-76
2021/10/21 01:01:16;;;;;;;9.90;6.80;;;11.00;99.90;;;;;;4428927;28;657750;-75
2021/10/21 01:04:04;;;;;;;16.30;6.63;;;10.90;99.90;;;;;;4445505;28;657156;-76
2021/10/21 01:06:51;;;;;;;11.80;6.93;;;10.80;99.90;;;;;;4420225;28;657431;-76
2021/10/21 01:09:39;;;;;;;14.17;7.33;;;10.70;99.90;;;;;;4443354;28;657756;-76
2021/10/21 01:12:26;;;;;;;10.97;6.83;;;10.70;99.90;;;;;;4416358;28;658278;-75
2021/10/21 01:15:21;;;;;;;11.73;6.83;;;10.50;99.90;;;;;;4440960;28;658165;-75
2021/10/21 01:18:08;;;;;;;10.57;6.90;;;10.40;99.90;;;;;;4415210;28;657702;-76
2021/10/21 01:20:57;;;;;;;11.93;6.93;;;10.30;99.90;;;;;;4420655;28;657492;-75
2021/10/21 01:23:44;;;;;;;16.33;7.10;;;10.30;99.90;;;;;;4441766;28;658971;-76
2021/10/21 01:26:32;;;;;;;14.20;7.57;;;10.20;99.90;;;;;;4422821;28;658714;-75
2021/10/21 01:29:21;;;;;;;12.33;7.13;;;10.10;99.90;;;;;;4441268;28;657805;-75
2021/10/21 01:32:08;;;;;;;10.70;6.73;;;10.10;99.90;;;;;;4416386;28;657608;-75
2021/10/21 01:34:56;;;;;;;10.23;6.63;;;10.00;99.90;;;;;;4418720;28;658031;-76
2021/10/21 01:37:46;;;;;;;9.83;7.13;;;10.00;99.90;;;;;;4442834;28;658209;-75
2021/10/21 01:40:34;;;;;;;10.43;7.10;;;10.00;99.90;;;;;;4417840;28;657597;-75
2021/10/21 01:43:21;;;;;;;17.20;6.40;;;10.00;99.90;;;;;;4418525;28;658619;-75
2021/10/21 01:46:10;;;;;;;8.37;6.70;;;10.00;99.90;;;;;;4437048;28;657590;-75
2021/10/21 01:48:57;;;;;;;11.47;6.70;;;10.00;99.90;;;;;;4416576;28;658454;-76
2021/10/21 01:51:45;;;;;;;15.07;7.20;;;10.00;99.90;;;;;;4442485;28;658687;-75
2021/10/21 01:54:33;;;;;;;11.63;6.47;;;10.00;99.90;;;;;;4419127;28;658820;-76
2021/10/21 01:57:21;;;;;;;9.60;6.53;;;10.00;99.90;;;;;;4417985;28;658038;-76
2021/10/21 02:00:10;;;;;;;14.47;7.13;;;10.00;99.90;;;;;;4441011;28;657490;-76
2021/10/21 02:02:58;;;;;;;11.60;6.97;;;10.00;99.90;;;;;;4419961;28;657898;-75
2021/10/21 02:05:45;;;;;;;11.97;6.80;;;10.00;99.90;;;;;;4424514;28;657454;-76
2021/10/21 02:08:33;;;;;;;12.33;7.43;;;9.90;99.90;;;;;;4441975;28;658254;-75
2021/10/21 02:11:22;;;;;;;16.13;7.47;;;9.90;99.90;;;;;;4420160;28;657552;-75
2021/10/21 02:14:10;;;;;;;11.87;7.10;;;9.90;1.00;;;;;;4440853;28;657383;-75
2021/10/21 02:16:58;;;;;;;12.97;7.80;;;10.00;1.00;;;;;;4424071;28;656442;-74
2021/10/21 02:19:46;;;;;;;14.20;7.00;;;10.00;1.00;;;;;;4423687;28;657117;-75
2021/10/21 02:22:33;;;;;;;12.87;7.07;;;10.00;1.00;;;;;;4441681;28;657819;-75
2021/10/21 02:25:21;;;;;;;11.70;7.03;;;10.00;1.00;;;;;;4414908;28;657651;-75
2021/10/21 02:28:10;;;;;;;13.43;7.33;;;9.90;1.00;;;;;;4444018;28;657186;-75
2021/10/21 02:30:57;;;;;;;11.33;7.60;;;9.90;1.00;;;;;;4419152;28;656959;-76
2021/10/21 02:33:45;;;;;;;16.03;8.03;;;9.90;1.00;;;;;;4439736;28;654686;-75
2021/10/21 02:36:32;;;;;;;12.10;7.50;;;9.90;1.00;;;;;;4416748;28;656003;-75
2021/10/21 02:39:20;;;;;;;13.27;7.30;;;9.90;1.00;;;;;;4436956;28;655673;-75
2021/10/21 02:42:08;;;;;;;12.70;7.57;;;9.80;1.00;;;;;;4432934;28;657307;-76
2021/10/21 02:44:57;;;;;;;12.47;8.20;;;9.80;1.00;;;;;;4421278;28;655589;-76
2021/10/21 02:47:45;;;;;;;17.43;9.30;;;9.80;1.00;;;;;;4433643;28;656009;-75
2021/10/21 02:50:33;;;;;;;22.47;10.60;;;9.70;1.00;;;;;;4411927;28;656447;-75
2021/10/21 02:53:20;;;;;;;19.80;9.88;;;9.60;1.00;;;;;;4418929;28;656653;-75
2021/10/21 02:56:08;;;;;;;14.30;8.10;;;9.60;1.00;;;;;;4429275;28;655537;-75
2021/10/21 02:58:55;;;;;;;18.70;8.13;;;9.50;1.00;;;;;;4422691;28;655335;-75
2021/10/21 03:01:44;;;;;;;14.07;7.97;;;9.40;1.00;;;;;;4438717;28;656917;-76
2021/10/21 03:04:32;;;;;;;15.63;8.67;;;9.30;1.00;;;;;;4415846;28;656068;-75
2021/10/21 03:07:19;;;;;;;15.53;8.80;;;9.30;1.00;;;;;;4438377;28;655654;-75
2021/10/21 03:10:08;;;;;;;21.60;8.40;;;9.20;1.00;;;;;;4419572;28;656738;-75
2021/10/21 03:12:55;;;;;;;13.67;8.27;;;9.20;1.00;;;;;;4425546;28;655076;-75
2021/10/21 03:15:43;;;;;;;18.67;8.87;;;9.20;1.00;;;;;;4441905;28;656529;-75
2021/10/21 03:18:32;;;;;;;14.77;9.57;;;9.10;1.00;;;;;;4421978;28;655711;-75
2021/10/21 03:21:19;;;;;;;16.30;9.60;;;9.10;1.00;;;;;;4441805;28;656167;-75
2021/10/21 03:24:07;;;;;;;18.50;9.37;;;9.20;1.00;;;;;;4412092;28;656210;-75
2021/10/21 03:26:55;;;;;;;24.10;10.40;;;9.20;1.00;;;;;;4440370;28;655664;-75
2021/10/21 03:29:42;;;;;;;23.80;9.80;;;9.10;1.00;;;;;;4418849;28;657691;-75
2021/10/21 03:32:30;;;;;;;27.03;10.93;;;9.10;1.00;;;;;;4441403;28;654920;-75
2021/10/21 03:35:18;;;;;;;50.87;13.97;;;9.10;1.00;;;;;;4417121;28;657607;-75
2021/10/21 03:38:06;;;;;;;71.43;19.93;;;9.00;1.00;;;;;;4421620;28;656697;-76
2021/10/21 03:40:54;;;;;;;24.15;10.90;;;9.00;1.00;;;;;;4443334;28;657595;-75
2021/10/21 03:43:41;;;;;;;36.93;14.00;;;9.00;1.00;;;;;;4423787;28;656579;-76
2021/10/21 03:46:29;;;;;;;179.63;64.10;;;9.00;1.00;;;;;;4440992;28;657095;-75
2021/10/21 03:49:16;;;;;;;108.68;56.80;;;8.90;1.00;;;;;;4417912;28;658020;-76
2021/10/21 03:52:06;;;;;;;88.87;44.57;;;8.90;1.00;;;;;;4435260;28;657891;-75
2021/10/21 03:54:53;;;;;;;82.13;39.13;;;8.80;1.00;;;;;;4411164;28;656808;-76
2021/10/21 03:57:41;;;;;;;75.67;36.30;;;8.60;1.00;;;;;;4419963;28;657185;-75
2021/10/21 04:00:29;;;;;;;78.40;37.57;;;8.60;1.00;;;;;;4437195;28;656729;-75
2021/10/21 04:03:16;;;;;;;83.10;41.87;;;8.50;1.00;;;;;;4421432;28;656622;-76
2021/10/21 04:06:04;;;;;;;52.20;30.00;;;8.50;1.00;;;;;;4439701;28;656801;-75
2021/10/21 04:08:53;;;;;;;39.70;22.60;;;8.50;1.00;;;;;;4424108;28;656408;-75
2021/10/21 04:11:41;;;;;;;46.33;24.30;;;8.50;1.00;;;;;;4424615;28;657347;-76
2021/10/21 04:14:28;;;;;;;51.50;24.97;;;8.50;1.00;;;;;;4445681;28;657136;-75
2021/10/21 04:17:19;;;;;;;54.97;25.50;;;8.50;1.00;;;;;;4420501;28;656836;-76
2021/10/21 04:20:08;;;;;;;33.17;17.03;;;8.40;1.00;;;;;;4419399;28;656798;-76
2021/10/21 04:22:55;;;;;;;52.90;20.43;;;8.40;1.00;;;;;;4432213;28;656248;-75
2021/10/21 04:25:44;;;;;;;116.63;37.57;;;8.40;1.00;;;;;;4445261;28;656181;-76
2021/10/21 04:28:32;;;;;;;85.37;30.97;;;8.40;1.00;;;;;;4421432;28;659147;-75
2021/10/21 04:31:19;;;;;;;38.33;17.50;;;8.40;1.00;;;;;;4441252;28;656642;-75
2021/10/21 04:34:07;;;;;;;39.03;18.30;;;8.40;1.00;;;;;;4421262;28;656977;-75
2021/10/21 04:36:55;;;;;;;37.70;16.73;;;8.40;1.00;;;;;;4436334;28;657234;-75
2021/10/21 04:39:42;;;;;;;30.33;14.30;;;8.30;1.00;;;;;;4417954;28;657918;-75
2021/10/21 04:42:31;;;;;;;40.10;18.43;;;8.40;1.00;;;;;;4436678;28;656475;-75
2021/10/21 04:45:19;;;;;;;46.17;18.45;;;8.40;1.00;;;;;;4423126;28;657377;-75
2021/10/21 04:48:06;;;;;;;48.03;19.60;;;8.40;5.10;;;;;;4417785;28;656924;-75
2021/10/21 04:50:54;;;;;;;35.97;15.87;;;8.40;11.70;;;;;;4434869;28;656695;-75
2021/10/21 04:53:41;;;;;;;26.13;12.80;;;8.50;16.80;;;;;;4416182;28;657881;-75
2021/10/21 04:56:29;;;;;;;18.27;11.30;;;8.40;11.30;;;;;;4439258;28;658171;-76
2021/10/21 04:59:18;;;;;;;24.80;13.68;;;8.50;5.50;;;;;;4421400;28;657308;-75
2021/10/21 05:02:06;;;;;;;22.90;12.50;;;8.60;1.00;;;;;;4422441;28;656485;-75
2021/10/21 05:04:53;;;;;;;22.53;11.67;;;8.60;1.00;;;;;;4442587;28;657363;-75
2021/10/21 05:07:41;;;;;;;26.20;12.37;;;8.60;1.00;;;;;;4419714;28;656948;-75
2021/10/21 05:10:29;;;;;;;23.30;12.97;;;8.70;1.00;;;;;;4440404;28;657384;-75
2021/10/21 05:13:16;;;;;;;22.20;12.20;;;8.70;1.00;;;;;;4420262;28;656658;-74
2021/10/21 05:16:05;;;;;;;20.92;11.48;;;8.70;1.00;;;;;;4444517;28;657458;-74
2021/10/21 05:18:53;;;;;;;25.93;11.93;;;8.70;1.00;;;;;;4414921;28;658184;-74
2021/10/21 05:21:40;;;;;;;20.63;11.37;;;8.80;1.00;;;;;;4419276;28;656858;-74
2021/10/21 05:24:28;;;;;;;18.03;9.90;;;8.80;1.00;;;;;;4443903;28;656864;-75
2021/10/21 05:27:16;;;;;;;18.20;10.33;;;8.90;1.00;;;;;;4421273;28;655713;-75
2021/10/21 05:30:04;;;;;;;15.90;9.53;;;9.00;1.00;;;;;;4438569;28;657170;-75
2021/10/21 05:32:53;;;;;;;19.27;9.70;;;9.00;1.00;;;;;;4420280;28;655482;-74
2021/10/21 05:35:40;;;;;;;16.83;9.73;;;9.10;1.00;;;;;;4422503;28;655846;-73
2021/10/21 05:38:28;;;;;;;17.10;9.90;;;9.20;1.00;;;;;;4441078;28;656799;-74
2021/10/21 05:41:16;;;;;;;30.03;11.53;;;9.40;1.00;;;;;;4420386;28;655421;-75
2021/10/21 05:44:04;;;;;;;26.37;11.83;;;9.40;1.00;;;;;;4444501;28;656971;-74
2021/10/21 05:46:54;;;;;;;28.33;13.20;;;9.50;1.00;;;;;;4415952;28;656188;-73
2021/10/21 05:49:45;;;;;;;29.40;12.20;;;9.60;1.00;;;;;;4419010;28;656994;-74
2021/10/21 05:52:38;;;;;;;27.37;13.07;;;9.60;1.00;;;;;;4417642;28;657984;-74
2021/10/21 05:55:27;;;;;;;25.83;11.60;;;9.60;1.00;;;;;;4403730;28;656948;-74
2021/10/21 05:58:15;;;;;;;192.40;50.80;;;9.70;99.90;;;;;;4441063;28;656170;-74
2021/10/21 06:01:03;;;;;;;127.40;37.20;;;9.80;99.90;;;;;;4417547;28;659693;-74
2021/10/21 06:03:51;;;;;;;106.27;32.30;;;9.80;99.90;;;;;;4415627;28;658574;-75
2021/10/21 06:06:40;;;;;;;70.07;27.90;;;9.90;99.90;;;;;;4441363;28;659166;-74
2021/10/21 06:09:27;;;;;;;69.97;24.80;;;9.90;99.90;;;;;;4412819;28;659697;-73
2021/10/21 06:12:15;;;;;;;55.40;21.07;;;10.00;99.90;;;;;;4441448;28;658134;-74
2021/10/21 06:15:04;;;;;;;34.33;15.03;;;10.10;99.90;;;;;;4409220;28;660149;-74
2021/10/21 06:17:52;;;;;;;36.43;15.07;;;10.10;99.90;;;;;;4414599;28;658467;-74
2021/10/21 06:20:41;;;;;;;33.87;17.10;;;10.20;99.90;;;;;;4440884;28;658856;-74
2021/10/21 06:23:30;;;;;;;23.10;13.00;;;10.20;99.90;;;;;;4410981;28;659384;-74
2021/10/21 06:26:18;;;;;;;29.73;12.33;;;10.30;99.90;;;;;;4414573;28;659034;-74
2021/10/21 06:29:06;;;;;;;20.47;11.73;;;10.40;99.90;;;;;;4427027;28;658405;-74
2021/10/21 06:31:53;;;;;;;21.70;11.57;;;10.50;99.90;;;;;;4439987;28;659030;-74
2021/10/21 06:34:41;;;;;;;24.43;11.27;;;10.60;99.90;;;;;;4412135;28;659415;-74
2021/10/21 06:37:28;;;;;;;22.70;11.33;;;10.70;99.90;;;;;;4430782;28;658720;-74
2021/10/21 06:40:18;;;;;;;20.50;11.73;;;10.90;99.90;;;;;;4410602;28;658259;-74
2021/10/21 06:43:06;;;;;;;25.60;10.77;;;11.00;99.90;;;;;;4413866;28;658590;-75
2021/10/21 06:45:53;;;;;;;21.00;11.77;;;11.20;99.90;;;;;;4432480;28;659023;-74
2021/10/21 06:48:41;;;;;;;24.10;11.70;;;11.30;99.90;;;;;;4410618;28;658475;-74
2021/10/21 06:51:28;;;;;;;25.40;11.63;;;11.50;99.90;;;;;;4437020;28;659459;-74
2021/10/21 06:54:16;;;;;;;20.93;10.20;;;11.60;99.90;;;;;;4414606;28;659093;-74
2021/10/21 06:57:05;;;;;;;19.93;10.60;;;11.80;99.90;;;;;;4429421;28;660130;-74
2021/10/21 06:59:53;;;;;;;22.73;10.40;;;12.00;99.90;;;;;;4414673;28;659201;-74
2021/10/21 07:02:41;;;;;;;16.67;9.18;;;12.20;99.90;;;;;;4420091;28;659411;-75
2021/10/21 07:05:29;;;;;;;16.57;9.13;;;12.30;99.90;;;;;;4447107;28;658280;-74
2021/10/21 07:08:18;;;;;;;17.93;9.73;;;12.50;99.90;;;;;;4411635;28;657568;-74
2021/10/21 07:11:06;;;;;;;17.03;9.03;;;12.70;99.90;;;;;;4419523;28;657679;-74
2021/10/21 07:13:55;;;;;;;20.87;9.00;;;12.90;99.90;;;;;;4428608;28;658244;-74
2021/10/21 07:16:42;;;;;;;12.27;8.17;;;13.10;99.90;;;;;;4413286;28;658779;-75
2021/10/21 07:19:30;;;;;;;12.67;8.77;;;13.30;99.90;;;;;;4441970;28;657704;-75
2021/10/21 07:22:18;;;;;;;16.17;10.13;;;13.50;99.90;;;;;;4419552;28;659033;-74
2021/10/21 07:25:06;;;;;;;22.57;8.67;;;13.70;99.90;;;;;;4433931;28;658381;-75
2021/10/21 07:27:54;;;;;;;15.20;8.90;;;13.90;99.90;;;;;;4442501;28;658828;-74
2021/10/21 07:30:44;;;;;;;15.37;8.97;;;14.10;99.90;;;;;;4416124;28;657985;-74
2021/10/21 07:33:31;;;;;;;14.03;7.83;;;14.30;99.90;;;;;;4427175;28;657752;-74
2021/10/21 07:36:19;;;;;;;19.63;8.63;;;14.50;99.90;;;;;;4445062;28;658664;-75
2021/10/21 07:39:07;;;;;;;14.87;8.53;;;14.70;99.90;;;;;;4421560;28;657589;-75
2021/10/21 07:41:59;;;;;;;13.80;8.60;;;14.80;99.90;;;;;;4440081;28;657789;-75
2021/10/21 07:44:47;;;;;;;13.50;8.33;;;15.00;99.90;;;;;;4419393;28;657736;-75
2021/10/21 07:47:36;;;;;;;17.67;8.87;;;15.20;99.90;;;;;;4444660;28;657800;-74
2021/10/21 07:50:23;;;;;;;18.57;9.67;;;15.50;99.90;;;;;;4434766;28;658214;-75
2021/10/21 07:53:11;;;;;;;13.60;8.30;;;15.60;99.90;;;;;;4441537;28;657673;-75
2021/10/21 07:56:00;;;;;;;16.37;8.90;;;15.70;99.90;;;;;;4420441;28;657783;-74
2021/10/21 07:58:48;;;;;;;12.77;8.50;;;16.00;99.90;;;;;;4411198;28;658120;-74
2021/10/21 08:01:36;;;;;;;17.33;8.50;;;16.30;99.90;;;;;;4422918;28;657822;-74
2021/10/21 08:04:25;;;;;;;13.80;9.03;;;16.30;99.90;;;;;;4417631;28;659018;-74
2021/10/21 08:07:13;;;;;;;13.87;8.37;;;16.50;99.90;;;;;;4444035;28;657571;-74
2021/10/21 08:10:00;;;;;;;11.67;7.73;;;16.80;99.90;;;;;;4448806;28;657504;-75
2021/10/21 08:12:50;;;;;;;14.20;8.50;;;17.00;99.90;;;;;;4448305;28;659256;-73
2021/10/21 08:15:37;;;;;;;16.70;8.17;;;16.90;99.90;;;;;;4425308;28;659455;-73
2021/10/21 08:18:26;;;;;;;16.00;8.90;;;17.00;99.90;;;;;;4448089;28;657720;-74
2021/10/21 08:21:15;;;;;;;15.47;8.77;;;17.00;99.90;;;;;;4451853;28;658204;-73
2021/10/21 08:24:03;;;;;;;14.70;9.33;;;17.20;99.90;;;;;;4425157;28;658692;-72
2021/10/21 08:26:51;;;;;;;12.93;8.38;;;17.30;99.90;;;;;;4428465;28;658005;-72
2021/10/21 08:29:39;;;;;;;16.40;8.53;;;17.40;99.90;;;;;;4443323;28;657551;-73
2021/10/21 08:32:27;;;;;;;18.73;9.13;;;17.20;99.90;;;;;;4415819;28;657292;-73
2021/10/21 08:35:15;;;;;;;14.77;9.17;;;17.10;99.90;;;;;;4445078;28;658120;-73
2021/10/21 08:38:05;;;;;;;21.23;9.07;;;17.10;99.90;;;;;;4425449;28;657793;-74
2021/10/21 08:40:52;;;;;;;13.07;8.47;;;17.30;99.90;;;;;;4407939;28;658918;-74
2021/10/21 08:43:40;;;;;;;18.10;9.87;;;17.50;99.90;;;;;;4446844;28;658152;-73
2021/10/21 08:46:28;;;;;;;17.33;9.23;;;17.60;99.90;;;;;;4411694;28;658625;-74
2021/10/21 08:49:16;;;;;;;13.47;8.57;;;17.60;99.90;;;;;;4410647;28;657287;-75
2021/10/21 08:52:04;;;;;;;13.13;8.87;;;17.30;99.90;;;;;;4433851;28;658195;-74
2021/10/21 08:54:53;;;;;;;14.90;9.47;;;17.00;99.90;;;;;;4401177;28;657941;-75
2021/10/21 08:57:41;;;;;;;18.03;10.17;;;16.70;99.90;;;;;;4405804;28;657765;-74
2021/10/21 09:00:29;;;;;;;23.48;11.35;;;16.50;99.90;;;;;;4409709;28;660343;-74
2021/10/21 09:03:34;;;;;;;22.37;10.80;;;16.40;99.90;;;;;;4396160;28;659221;-75
2021/10/21 09:06:31;;;;;;;16.53;10.23;;;16.30;99.90;;;;;;4425332;28;658853;-74
2021/10/21 09:09:19;;;;;;;17.43;10.07;;;16.30;99.90;;;;;;4394546;28;660163;-75
2021/10/21 09:12:10;;;;;;;15.23;9.97;;;16.20;99.90;;;;;;4399842;28;659214;-74
2021/10/21 09:14:58;;;;;;;14.67;9.43;;;16.20;99.90;;;;;;4400294;28;658362;-75
2021/10/21 09:17:46;;;;;;;19.17;10.67;;;16.00;99.90;;;;;;4395373;28;657857;-75
2021/10/21 09:20:40;;;;;;;17.20;9.53;;;15.70;99.90;;;;;;4420916;28;659820;-72
2021/10/21 09:23:29;;;;;;;22.90;10.73;;;15.50;99.90;;;;;;4367238;28;658495;-74
2021/10/21 09:26:17;;;;;;;18.07;11.23;;;15.50;99.90;;;;;;4393343;28;658379;-74
2021/10/21 09:29:07;;;;;;;17.37;9.03;;;15.60;99.90;;;;;;4424434;28;658627;-75
2021/10/21 09:32:04;;;;;;;21.70;11.20;;;15.60;99.90;;;;;;4390335;28;657845;-75
2021/10/21 09:34:53;;;;;;;15.33;9.83;;;15.80;99.90;;;;;;4395492;28;659706;-74
2021/10/21 09:37:42;;;;;;;16.17;10.50;;;16.00;99.90;;;;;;4402675;28;657766;-74
2021/10/21 09:40:31;;;;;;;17.10;9.43;;;16.00;99.90;;;;;;4416868;28;659580;-73
2021/10/21 09:43:19;;;;;;;23.17;9.63;;;15.90;99.90;;;;;;4396905;28;658136;-72
2021/10/21 09:46:24;;;;;;;16.65;9.88;;;15.70;99.90;;;;;;4395183;28;658555;-74
2021/10/21 09:49:29;;;;;;;14.03;8.00;;;15.70;99.90;;;;;;4397827;28;657702;-73
2021/10/21 09:52:17;;;;;;;16.53;10.27;;;15.70;99.90;;;;;;4398095;28;657410;-75
2021/10/21 09:55:05;;;;;;;16.30;10.30;;;15.70;99.90;;;;;;4416651;28;659365;-74
2021/10/21 09:57:53;;;;;;;14.03;9.87;;;15.70;99.90;;;;;;4398984;28;659834;-74
2021/10/21 10:00:42;;;;;;;15.55;9.15;;;15.80;99.90;;;;;;4395880;28;657815;-72
2021/10/21 10:03:33;;;;;;;15.50;9.40;;;15.80;99.90;;;;;;4421304;28;658091;-74
2021/10/21 10:06:21;;;;;;;15.50;9.33;;;15.70;99.90;;;;;;4375273;28;657418;-74
2021/10/21 10:09:08;;;;;;;15.70;9.10;;;15.60;99.90;;;;;;4421420;28;658395;-72
2021/10/21 10:11:57;;;;;;;14.93;8.77;;;15.50;99.90;;;;;;4402148;28;657442;-74
2021/10/21 10:14:45;;;;;;;16.70;9.57;;;15.60;99.90;;;;;;4424614;28;658004;-74
2021/10/21 10:17:32;;;;;;;15.23;8.90;;;15.50;99.90;;;;;;4393781;28;658995;-73
2021/10/21 10:20:26;;;;;;;17.40;10.37;;;15.50;99.90;;;;;;4412980;28;657671;-75
2021/10/21 10:23:14;;;;;;;19.93;9.30;;;15.50;99.90;;;;;;4396042;28;658869;-72
2021/10/21 10:26:01;;;;;;;12.77;7.50;;;15.40;99.90;;;;;;4398373;28;657744;-71
2021/10/21 10:28:53;;;;;;;16.53;9.27;;;15.30;99.90;;;;;;4414323;28;657935;-73
2021/10/21 10:31:42;;;;;;;15.43;9.63;;;15.30;99.90;;;;;;4375825;28;658039;-75
2021/10/21 10:34:54;;;;;;;16.40;9.40;;;15.30;99.90;;;;;;4423338;28;658314;-74
2021/10/21 10:37:49;;;;;;;17.50;9.37;;;15.20;99.90;;;;;;4399662;28;657382;-72
2021/10/21 10:40:42;;;;;;;13.87;9.37;;;15.10;99.90;;;;;;4368533;28;658844;-74
2021/10/21 10:43:41;;;;;;;18.97;11.10;;;15.10;99.90;;;;;;4390270;28;657925;-75
2021/10/21 10:46:53;;;;;;;17.93;9.23;;;15.20;99.90;;;;;;4394720;28;659261;-76
2021/10/21 10:49:44;;;;;;;18.70;10.43;;;15.30;99.90;;;;;;4389898;28;657392;-75
2021/10/21 10:52:46;;;;;;;14.23;9.40;;;15.40;99.90;;;;;;4391834;28;658354;-75
2021/10/21 10:55:38;;;;;;;16.07;8.73;;;15.30;99.90;;;;;;4379849;28;658341;-73
2021/10/21 10:58:26;;;;;;;10.87;6.80;;;15.30;99.90;;;;;;4403582;28;658243;-72
2021/10/21 11:01:14;;;;;;;16.83;7.70;;;15.30;99.90;;;;;;4422687;28;658122;-72
2021/10/21 11:04:01;;;;;;;12.83;7.90;;;15.10;99.90;;;;;;4400661;28;658179;-74
2021/10/21 11:06:51;;;;;;;12.97;6.00;;;15.10;99.90;;;;;;4418242;28;658898;-72
2021/10/21 11:09:42;;;;;;;8.87;5.97;;;15.10;99.90;;;;;;4399355;28;658444;-73
2021/10/21 11:12:30;;;;;;;9.00;5.20;;;15.10;99.90;;;;;;4420097;28;657262;-72
2021/10/21 11:15:37;;;;;;;9.73;6.93;;;15.00;99.90;;;;;;4427003;28;658289;-74
2021/10/21 11:18:26;;;;;;;13.80;6.77;;;15.00;99.90;;;;;;4400827;28;656632;-73
2021/10/21 11:21:45;;;;;;;10.47;6.93;;;14.90;99.90;;;;;;4386335;28;657623;-75
2021/10/21 11:25:03;;;;;;;12.00;7.47;;;15.00;99.90;;;;;;4376395;28;657962;-73
2021/10/21 11:27:52;;;;;;;10.73;6.27;;;15.10;99.90;;;;;;4387268;28;657952;-75
2021/10/21 11:30:40;;;;;;;10.43;6.00;;;15.10;99.90;;;;;;4420562;28;657756;-73
2021/10/21 11:33:28;;;;;;;15.30;6.50;;;15.10;99.90;;;;;;4397689;28;658097;-74
2021/10/21 11:36:15;;;;;;;10.90;6.30;;;15.10;99.90;;;;;;4406684;28;657585;-75
2021/10/21 11:39:31;;;;;;;10.30;6.50;;;15.00;99.90;;;;;;4425282;28;657824;-74
2021/10/21 11:42:20;;;;;;;8.87;6.27;;;15.00;99.90;;;;;;4413804;28;658597;-75
2021/10/21 11:45:09;;;;;;;11.07;6.53;;;14.90;99.90;;;;;;4418763;28;657243;-74
2021/10/21 11:48:01;;;;;;;10.57;6.03;;;14.90;99.90;;;;;;4410733;28;657676;-73
2021/10/21 11:50:49;;;;;;;9.43;5.97;;;14.90;99.90;;;;;;4410765;28;658935;-73
2021/10/21 11:53:37;;;;;;;11.27;6.87;;;14.90;99.90;;;;;;4419825;28;656715;-73
2021/10/21 11:56:27;;;;;;;9.63;6.33;;;14.90;99.90;;;;;;4430955;28;658615;-73
2021/10/21 11:59:32;;;;;;;9.53;5.80;;;15.00;99.90;;;;;;4411090;28;657432;-73
2021/10/21 12:02:19;;;;;;;10.90;6.20;;;15.00;99.90;;;;;;4418365;28;656352;-74
2021/10/21 12:05:08;;;;;;;8.80;5.70;;;15.00;99.90;;;;;;4413374;28;657588;-74
2021/10/21 12:07:56;;;;;;;8.77;4.77;;;15.10;99.90;;;;;;4414718;28;656524;-74
2021/10/21 12:10:46;;;;;;;7.00;4.60;;;15.10;99.90;;;;;;4443358;28;656962;-73
2021/10/21 12:13:34;;;;;;;9.93;4.43;;;15.10;99.90;;;;;;4418073;28;657535;-73
2021/10/21 12:16:24;;;;;;;10.03;6.27;;;15.10;99.90;;;;;;4421859;28;656650;-74
2021/10/21 12:19:11;;;;;;;8.37;5.27;;;15.20;99.90;;;;;;4413809;28;657459;-75
2021/10/21 12:22:06;;;;;;;8.93;5.47;;;15.10;99.90;;;;;;4437847;28;657501;-72
2021/10/21 12:24:53;;;;;;;10.83;5.80;;;15.10;99.90;;;;;;4400231;28;656920;-75
2021/10/21 12:27:41;;;;;;;11.67;5.80;;;15.10;99.90;;;;;;4407875;28;657272;-74
2021/10/21 12:30:34;;;;;;;10.23;4.93;;;15.00;99.90;;;;;;4445005;28;657935;-73
2021/10/21 12:33:23;;;;;;;9.03;4.90;;;15.10;99.90;;;;;;4422447;28;657394;-72
2021/10/21 12:36:19;;;;;;;9.13;5.43;;;15.00;99.90;;;;;;4421083;28;656716;-73
2021/10/21 12:39:07;;;;;;;12.00;5.07;;;15.00;99.90;;;;;;4420976;28;656264;-75
2021/10/21 12:41:56;;;;;;;7.80;4.93;;;15.00;99.90;;;;;;4430643;28;657486;-74
2021/10/21 12:44:44;;;;;;;5.97;4.53;;;15.00;99.90;;;;;;4410890;28;656975;-73
2021/10/21 12:47:33;;;;;;;8.00;5.03;;;15.00;99.90;;;;;;4421952;28;656530;-75
2021/10/21 12:50:25;;;;;;;7.93;5.00;;;15.00;99.90;;;;;;4418175;28;658126;-72
2021/10/21 12:53:17;;;;;;;10.17;5.73;;;15.10;99.90;;;;;;4410833;28;657549;-72
2021/10/21 12:56:21;;;;;;;9.20;5.03;;;15.10;99.90;;;;;;4405184;28;658224;-74
2021/10/21 12:59:08;;;;;;;10.93;5.03;;;15.10;99.90;;;;;;4417940;28;656919;-74
2021/10/21 13:01:59;;;;;;;7.43;4.20;;;15.30;99.90;;;;;;4417844;28;658017;-74
2021/10/21 13:04:48;;;;;;;7.97;3.23;;;15.30;99.90;;;;;;4418113;28;656898;-73
2021/10/21 13:07:37;;;;;;;9.43;3.13;;;15.50;99.90;;;;;;4417008;28;656517;-73
2021/10/21 13:10:25;;;;;;;6.03;3.10;;;15.60;99.90;;;;;;4443532;28;657150;-74
2021/10/21 13:13:21;;;;;;;6.27;3.50;;;15.70;99.90;;;;;;4417463;28;657642;-73
2021/10/21 13:16:11;;;;;;;8.77;3.67;;;15.80;99.90;;;;;;4430726;28;656730;-74
2021/10/21 13:19:01;;;;;;;9.53;3.63;;;15.90;99.90;;;;;;4421850;28;657642;-74
2021/10/21 13:21:48;;;;;;;7.83;2.97;;;15.90;99.90;;;;;;4418565;28;657066;-73
2021/10/21 13:24:37;;;;;;;8.07;3.37;;;15.90;99.90;;;;;;4421640;28;656762;-74
2021/10/21 13:27:25;;;;;;;5.03;3.47;;;16.00;99.90;;;;;;4434326;28;656302;-74
2021/10/21 13:30:13;;;;;;;13.57;3.00;;;16.00;99.90;;;;;;4407571;28;657557;-72
2021/10/21 13:33:00;;;;;;;7.10;3.10;;;16.00;99.90;;;;;;4428074;28;657475;-75
2021/10/21 13:35:48;;;;;;;3.90;2.20;;;16.00;99.90;;;;;;4439023;28;657774;-73
2021/10/21 13:38:36;;;;;;;6.10;2.53;;;16.00;99.90;;;;;;4418245;28;656535;-75
2021/10/21 13:41:25;;;;;;;5.63;2.47;;;16.00;99.90;;;;;;4418628;28;657893;-71
2021/10/21 13:44:13;;;;;;;4.53;2.70;;;16.00;99.90;;;;;;4422445;28;657731;-72
2021/10/21 13:47:02;;;;;;;10.10;2.88;;;16.00;99.90;;;;;;4427166;28;656163;-73
2021/10/21 13:49:50;;;;;;;4.07;2.57;;;16.00;99.90;;;;;;4437192;28;657583;-74
2021/10/21 13:52:37;;;;;;;8.37;2.90;;;16.00;99.90;;;;;;4420959;28;657941;-72
2021/10/21 13:55:25;;;;;;;6.10;2.80;;;16.00;99.90;;;;;;4423931;28;656070;-73
2021/10/21 13:58:15;;;;;;;5.83;2.83;;;16.20;99.90;;;;;;4404314;28;657546;-74
2021/10/21 14:01:02;;;;;;;6.77;2.77;;;17.50;99.90;;;;;;4402346;28;657904;-73
2021/10/21 14:03:50;;;;;;;8.90;2.70;;;17.90;99.90;;;;;;4436428;28;656435;-72
2021/10/21 14:06:38;;;;;;;6.83;3.20;;;17.90;99.90;;;;;;4411720;28;658043;-72
2021/10/21 14:09:25;;;;;;;7.37;3.00;;;18.10;99.90;;;;;;4412353;28;656310;-72
2021/10/21 14:12:13;;;;;;;9.07;3.23;;;17.50;99.90;;;;;;4422558;28;657974;-72
2021/10/21 14:15:02;;;;;;;8.27;3.23;;;17.10;99.90;;;;;;4418930;28;656643;-72
2021/10/21 14:17:50;;;;;;;8.27;3.43;;;17.10;99.90;;;;;;4435425;28;657532;-72
2021/10/21 14:20:37;;;;;;;8.50;2.90;;;17.00;99.90;;;;;;4410649;28;658382;-73
2021/10/21 14:23:26;;;;;;;9.07;3.17;;;16.70;99.90;;;;;;4435101;28;657074;-73